sensor_id;sensor_type;location;lat;lon;timestamp;temperature;humidity
75321;DHT22;68337;52.196;5.660;2023-03-14T00:01:54;11.40;99.90
75321;DHT22;68337;52.196;5.660;2023-03-14T00:04:19;11.30;99.90
75321;DHT22;68337;52.196;5.660;2023-03-14T00:06:45;11.30;99.90
75321;DHT22;68337;52.196;5.660;2023-03-14T00:09:13;11.30;99.90
75321;DHT22;68337;52.196;5.660;2023-03-14T00:11:38;11.10;99.90
75321;DHT22;68337;52.196;5.660;2023-03-14T00:14:04;11.10;99.90
75321;DHT22;68337;52.196;5.660;2023-03-14T00:16:30;11.00;99.90
75321;DHT22;68337;52.196;5.660;2023-03-14T00:18:55;11.00;99.90
75321;DHT22;68337;52.196;5.660;2023-03-14T00:21:21;10.90;99.90
75321;DHT22;68337;52.196;5.660;2023-03-14T00:23:47;10.90;99.90
75321;DHT22;68337;52.196;5.660;2023-03-14T00:26:16;10.90;99.90
75321;DHT22;68337;52.196;5.660;2023-03-14T00:28:43;10.90;99.90
75321;DHT22;68337;52.196;5.660;2023-03-14T00:31:11;10.90;99.90
75321;DHT22;68337;52.196;5.660;2023-03-14T00:33:37;11.00;99.90
75321;DHT22;68337;52.196;5.660;2023-03-14T00:36:06;11.00;99.90
75321;DHT22;68337;52.196;5.660;2023-03-14T00:38:34;11.00;99.90
75321;DHT22;68337;52.196;5.660;2023-03-14T00:41:03;11.00;99.90
75321;DHT22;68337;52.196;5.660;2023-03-14T00:43:29;11.00;99.90
75321;DHT22;68337;52.196;5.660;2023-03-14T00:45:55;11.10;99.90
75321;DHT22;68337;52.196;5.660;2023-03-14T00:48:21;11.10;99.90
75321;DHT22;68337;52.196;5.660;2023-03-14T00:50:47;11.00;99.90
75321;DHT22;68337;52.196;5.660;2023-03-14T00:53:13;11.00;99.90
75321;DHT22;68337;52.196;5.660;2023-03-14T00:55:39;11.00;99.90
75321;DHT22;68337;52.196;5.660;2023-03-14T00:58:06;11.00;99.90
75321;DHT22;68337;52.196;5.660;2023-03-14T01:00:32;11.00;99.90
75321;DHT22;68337;52.196;5.660;2023-03-14T01:02:58;10.90;99.90
75321;DHT22;68337;52.196;5.660;2023-03-14T01:05:24;10.90;99.90
75321;DHT22;68337;52.196;5.660;2023-03-14T01:07:50;10.90;99.90
75321;DHT22;68337;52.196;5.660;2023-03-14T01:10:16;10.90;99.90
75321;DHT22;68337;52.196;5.660;2023-03-14T01:12:41;10.90;99.90
75321;DHT22;68337;52.196;5.660;2023-03-14T01:15:08;10.80;99.90
75321;DHT22;68337;52.196;5.660;2023-03-14T01:17:34;10.80;99.90
75321;DHT22;68337;52.196;5.660;2023-03-14T01:20:00;10.80;99.90
75321;DHT22;68337;52.196;5.660;2023-03-14T01:22:26;10.90;99.90
75321;DHT22;68337;52.196;5.660;2023-03-14T01:24:52;10.80;99.90
75321;DHT22;68337;52.196;5.660;2023-03-14T01:27:17;10.80;99.90
75321;DHT22;68337;52.196;5.660;2023-03-14T01:29:43;10.60;99.90
75321;DHT22;68337;52.196;5.660;2023-03-14T01:32:09;10.60;99.90
75321;DHT22;68337;52.196;5.660;2023-03-14T01:34:34;10.40;99.90
75321;DHT22;68337;52.196;5.660;2023-03-14T01:37:00;10.40;99.90
75321;DHT22;68337;52.196;5.660;2023-03-14T01:39:26;10.40;99.90
75321;DHT22;68337;52.196;5.660;2023-03-14T01:41:52;10.40;99.90
75321;DHT22;68337;52.196;5.660;2023-03-14T01:44:17;10.30;99.90
75321;DHT22;68337;52.196;5.660;2023-03-14T01:46:44;10.10;99.90
75321;DHT22;68337;52.196;5.660;2023-03-14T01:49:27;10.00;99.90
75321;DHT22;68337;52.196;5.660;2023-03-14T01:54:36;9.90;99.90
75321;DHT22;68337;52.196;5.660;2023-03-14T01:59:38;9.80;99.90
75321;DHT22;68337;52.196;5.660;2023-03-14T02:02:07;9.70;99.90
75321;DHT22;68337;52.196;5.660;2023-03-14T02:04:37;9.70;99.90
75321;DHT22;68337;52.196;5.660;2023-03-14T02:07:16;9.70;99.90
75321;DHT22;68337;52.196;5.660;2023-03-14T02:09:44;9.70;99.90
75321;DHT22;68337;52.196;5.660;2023-03-14T02:12:12;9.70;99.90
75321;DHT22;68337;52.196;5.660;2023-03-14T02:14:39;9.70;99.90
75321;DHT22;68337;52.196;5.660;2023-03-14T02:17:06;9.70;99.90
75321;DHT22;68337;52.196;5.660;2023-03-14T02:22:20;9.70;99.90
75321;DHT22;68337;52.196;5.660;2023-03-14T02:27:20;9.70;99.90
75321;DHT22;68337;52.196;5.660;2023-03-14T02:29:53;9.60;99.90
75321;DHT22;68337;52.196;5.660;2023-03-14T02:32:21;9.70;99.90
75321;DHT22;68337;52.196;5.660;2023-03-14T02:34:51;9.70;99.90
75321;DHT22;68337;52.196;5.660;2023-03-14T02:37:20;9.70;99.90
75321;DHT22;68337;52.196;5.660;2023-03-14T02:39:47;9.60;99.90
75321;DHT22;68337;52.196;5.660;2023-03-14T02:42:15;9.60;99.90
75321;DHT22;68337;52.196;5.660;2023-03-14T02:44:57;9.60;99.90
75321;DHT22;68337;52.196;5.660;2023-03-14T02:47:30;9.60;99.90
75321;DHT22;68337;52.196;5.660;2023-03-14T02:50:02;9.60;99.90
75321;DHT22;68337;52.196;5.660;2023-03-14T02:52:29;9.60;99.90
75321;DHT22;68337;52.196;5.660;2023-03-14T02:54:55;9.60;99.90
75321;DHT22;68337;52.196;5.660;2023-03-14T02:57:20;9.60;99.90
75321;DHT22;68337;52.196;5.660;2023-03-14T02:59:46;9.60;99.90
75321;DHT22;68337;52.196;5.660;2023-03-14T03:02:11;9.50;99.90
75321;DHT22;68337;52.196;5.660;2023-03-14T03:04:37;9.50;99.90
75321;DHT22;68337;52.196;5.660;2023-03-14T03:07:03;9.60;99.90
75321;DHT22;68337;52.196;5.660;2023-03-14T03:09:29;9.60;99.90
75321;DHT22;68337;52.196;5.660;2023-03-14T03:11:55;9.60;99.90
75321;DHT22;68337;52.196;5.660;2023-03-14T03:14:21;9.60;99.90
75321;DHT22;68337;52.196;5.660;2023-03-14T03:16:47;9.50;99.90
75321;DHT22;68337;52.196;5.660;2023-03-14T03:19:12;9.60;99.90
75321;DHT22;68337;52.196;5.660;2023-03-14T03:21:45;9.60;99.90
75321;DHT22;68337;52.196;5.660;2023-03-14T03:24:10;9.60;99.90
75321;DHT22;68337;52.196;5.660;2023-03-14T03:26:37;9.60;99.90
75321;DHT22;68337;52.196;5.660;2023-03-14T03:29:03;9.60;99.90
75321;DHT22;68337;52.196;5.660;2023-03-14T03:31:29;9.60;99.90
75321;DHT22;68337;52.196;5.660;2023-03-14T03:33:55;9.50;99.90
75321;DHT22;68337;52.196;5.660;2023-03-14T03:36:24;9.60;99.90
75321;DHT22;68337;52.196;5.660;2023-03-14T03:38:51;9.50;99.90
75321;DHT22;68337;52.196;5.660;2023-03-14T03:41:16;9.60;99.90
75321;DHT22;68337;52.196;5.660;2023-03-14T03:43:42;9.60;99.90
75321;DHT22;68337;52.196;5.660;2023-03-14T03:46:08;9.60;99.90
75321;DHT22;68337;52.196;5.660;2023-03-14T03:48:34;9.60;99.90
75321;DHT22;68337;52.196;5.660;2023-03-14T03:51:00;9.70;99.90
75321;DHT22;68337;52.196;5.660;2023-03-14T03:53:26;9.60;99.90
75321;DHT22;68337;52.196;5.660;2023-03-14T03:55:52;9.60;99.90
75321;DHT22;68337;52.196;5.660;2023-03-14T03:58:18;9.70;99.90
75321;DHT22;68337;52.196;5.660;2023-03-14T04:00:44;9.60;99.90
75321;DHT22;68337;52.196;5.660;2023-03-14T04:03:10;9.60;99.90
75321;DHT22;68337;52.196;5.660;2023-03-14T04:05:36;9.60;99.90
75321;DHT22;68337;52.196;5.660;2023-03-14T04:08:02;9.60;99.90
75321;DHT22;68337;52.196;5.660;2023-03-14T04:10:28;9.60;99.90
75321;DHT22;68337;52.196;5.660;2023-03-14T04:12:54;9.60;99.90
75321;DHT22;68337;52.196;5.660;2023-03-14T04:15:20;9.60;99.90
75321;DHT22;68337;52.196;5.660;2023-03-14T04:17:45;9.60;99.90
75321;DHT22;68337;52.196;5.660;2023-03-14T04:20:11;9.60;99.90
75321;DHT22;68337;52.196;5.660;2023-03-14T04:22:40;9.60;99.90
75321;DHT22;68337;52.196;5.660;2023-03-14T04:25:07;9.60;99.90
75321;DHT22;68337;52.196;5.660;2023-03-14T04:27:32;9.60;99.90
75321;DHT22;68337;52.196;5.660;2023-03-14T04:29:58;9.60;99.90
75321;DHT22;68337;52.196;5.660;2023-03-14T04:32:24;9.50;99.90
75321;DHT22;68337;52.196;5.660;2023-03-14T04:34:49;9.50;99.90
75321;DHT22;68337;52.196;5.660;2023-03-14T04:37:15;9.60;99.90
75321;DHT22;68337;52.196;5.660;2023-03-14T04:39:41;9.60;99.90
75321;DHT22;68337;52.196;5.660;2023-03-14T04:42:07;9.70;99.90
75321;DHT22;68337;52.196;5.660;2023-03-14T04:44:33;9.70;99.90
75321;DHT22;68337;52.196;5.660;2023-03-14T04:46:58;9.70;99.90
75321;DHT22;68337;52.196;5.660;2023-03-14T04:49:24;9.70;99.90
75321;DHT22;68337;52.196;5.660;2023-03-14T04:51:50;9.70;99.90
75321;DHT22;68337;52.196;5.660;2023-03-14T04:54:17;9.70;99.90
75321;DHT22;68337;52.196;5.660;2023-03-14T04:56:43;9.70;99.90
75321;DHT22;68337;52.196;5.660;2023-03-14T04:59:08;9.80;99.90
75321;DHT22;68337;52.196;5.660;2023-03-14T05:01:35;9.70;99.90
75321;DHT22;68337;52.196;5.660;2023-03-14T05:04:01;9.80;99.90
75321;DHT22;68337;52.196;5.660;2023-03-14T05:06:26;9.80;99.90
75321;DHT22;68337;52.196;5.660;2023-03-14T05:08:52;9.80;99.90
75321;DHT22;68337;52.196;5.660;2023-03-14T05:11:18;9.80;99.90
75321;DHT22;68337;52.196;5.660;2023-03-14T05:13:44;9.80;99.90
75321;DHT22;68337;52.196;5.660;2023-03-14T05:16:10;9.70;99.90
75321;DHT22;68337;52.196;5.660;2023-03-14T05:18:37;9.70;99.90
75321;DHT22;68337;52.196;5.660;2023-03-14T05:21:03;9.70;99.90
75321;DHT22;68337;52.196;5.660;2023-03-14T05:23:29;9.80;99.90
75321;DHT22;68337;52.196;5.660;2023-03-14T05:25:55;9.70;99.90
75321;DHT22;68337;52.196;5.660;2023-03-14T05:28:21;9.60;99.90
75321;DHT22;68337;52.196;5.660;2023-03-14T05:30:47;9.60;99.90
75321;DHT22;68337;52.196;5.660;2023-03-14T05:33:12;9.60;99.90
75321;DHT22;68337;52.196;5.660;2023-03-14T05:35:38;9.50;99.90
75321;DHT22;68337;52.196;5.660;2023-03-14T05:38:04;9.50;99.90
75321;DHT22;68337;52.196;5.660;2023-03-14T05:40:29;9.50;99.90
75321;DHT22;68337;52.196;5.660;2023-03-14T05:42:55;9.50;99.90
75321;DHT22;68337;52.196;5.660;2023-03-14T05:45:21;9.50;99.90
75321;DHT22;68337;52.196;5.660;2023-03-14T05:47:47;9.40;99.90
75321;DHT22;68337;52.196;5.660;2023-03-14T05:50:12;9.40;99.90
75321;DHT22;68337;52.196;5.660;2023-03-14T05:52:38;9.40;99.90
75321;DHT22;68337;52.196;5.660;2023-03-14T05:55:04;9.40;99.90
75321;DHT22;68337;52.196;5.660;2023-03-14T05:57:30;9.40;99.90
75321;DHT22;68337;52.196;5.660;2023-03-14T05:59:56;9.40;99.90
75321;DHT22;68337;52.196;5.660;2023-03-14T06:02:21;9.40;99.90
75321;DHT22;68337;52.196;5.660;2023-03-14T06:04:47;9.40;99.90
75321;DHT22;68337;52.196;5.660;2023-03-14T06:07:13;9.40;99.90
75321;DHT22;68337;52.196;5.660;2023-03-14T06:09:39;9.40;99.90
75321;DHT22;68337;52.196;5.660;2023-03-14T06:12:06;9.40;99.90
75321;DHT22;68337;52.196;5.660;2023-03-14T06:14:32;9.40;99.90
75321;DHT22;68337;52.196;5.660;2023-03-14T06:16:58;9.40;99.90
75321;DHT22;68337;52.196;5.660;2023-03-14T06:19:25;9.40;99.90
75321;DHT22;68337;52.196;5.660;2023-03-14T06:21:51;9.40;99.90
75321;DHT22;68337;52.196;5.660;2023-03-14T06:24:17;9.40;99.90
75321;DHT22;68337;52.196;5.660;2023-03-14T06:26:43;9.30;99.90
75321;DHT22;68337;52.196;5.660;2023-03-14T06:29:09;9.40;99.90
75321;DHT22;68337;52.196;5.660;2023-03-14T06:31:35;9.30;99.90
75321;DHT22;68337;52.196;5.660;2023-03-14T06:34:01;9.30;99.90
75321;DHT22;68337;52.196;5.660;2023-03-14T06:36:26;9.40;99.90
75321;DHT22;68337;52.196;5.660;2023-03-14T06:38:52;9.40;99.90
75321;DHT22;68337;52.196;5.660;2023-03-14T06:41:18;9.40;99.90
75321;DHT22;68337;52.196;5.660;2023-03-14T06:43:44;9.40;99.90
75321;DHT22;68337;52.196;5.660;2023-03-14T06:46:09;9.40;99.90
75321;DHT22;68337;52.196;5.660;2023-03-14T06:48:35;9.40;99.90
75321;DHT22;68337;52.196;5.660;2023-03-14T06:51:01;9.40;99.90
75321;DHT22;68337;52.196;5.660;2023-03-14T06:53:27;9.40;99.90
75321;DHT22;68337;52.196;5.660;2023-03-14T06:55:52;9.40;99.90
75321;DHT22;68337;52.196;5.660;2023-03-14T06:58:19;9.30;99.90
75321;DHT22;68337;52.196;5.660;2023-03-14T07:00:44;9.40;99.90
75321;DHT22;68337;52.196;5.660;2023-03-14T07:03:11;9.10;99.90
75321;DHT22;68337;52.196;5.660;2023-03-14T07:05:38;8.80;99.90
75321;DHT22;68337;52.196;5.660;2023-03-14T07:08:06;8.50;99.90
75321;DHT22;68337;52.196;5.660;2023-03-14T07:10:32;8.40;99.90
75321;DHT22;68337;52.196;5.660;2023-03-14T07:12:58;8.30;99.90
75321;DHT22;68337;52.196;5.660;2023-03-14T07:15:23;8.30;99.90
75321;DHT22;68337;52.196;5.660;2023-03-14T07:17:49;8.20;99.90
75321;DHT22;68337;52.196;5.660;2023-03-14T07:20:15;8.20;99.90
75321;DHT22;68337;52.196;5.660;2023-03-14T07:22:41;8.10;99.90
75321;DHT22;68337;52.196;5.660;2023-03-14T07:25:07;8.10;99.90
75321;DHT22;68337;52.196;5.660;2023-03-14T07:27:34;8.00;99.90
75321;DHT22;68337;52.196;5.660;2023-03-14T07:30:00;7.90;99.90
75321;DHT22;68337;52.196;5.660;2023-03-14T07:32:26;7.90;99.90
75321;DHT22;68337;52.196;5.660;2023-03-14T07:34:51;7.80;99.90
75321;DHT22;68337;52.196;5.660;2023-03-14T07:37:17;7.80;99.90
75321;DHT22;68337;52.196;5.660;2023-03-14T07:39:43;7.80;99.90
75321;DHT22;68337;52.196;5.660;2023-03-14T07:42:08;7.80;99.90
75321;DHT22;68337;52.196;5.660;2023-03-14T07:44:34;7.70;99.90
75321;DHT22;68337;52.196;5.660;2023-03-14T07:47:00;7.60;99.90
75321;DHT22;68337;52.196;5.660;2023-03-14T07:49:26;7.60;99.90
75321;DHT22;68337;52.196;5.660;2023-03-14T07:51:51;7.60;99.90
75321;DHT22;68337;52.196;5.660;2023-03-14T07:54:17;7.60;99.90
75321;DHT22;68337;52.196;5.660;2023-03-14T07:56:43;7.60;99.90
75321;DHT22;68337;52.196;5.660;2023-03-14T07:59:08;7.60;99.90
75321;DHT22;68337;52.196;5.660;2023-03-14T08:01:34;7.30;99.90
75321;DHT22;68337;52.196;5.660;2023-03-14T08:04:00;7.00;99.90
75321;DHT22;68337;52.196;5.660;2023-03-14T08:06:26;6.80;99.90
75321;DHT22;68337;52.196;5.660;2023-03-14T08:08:51;6.70;99.90
75321;DHT22;68337;52.196;5.660;2023-03-14T08:11:17;6.50;99.90
75321;DHT22;68337;52.196;5.660;2023-03-14T08:13:43;6.50;99.90
75321;DHT22;68337;52.196;5.660;2023-03-14T08:16:16;6.50;99.90
75321;DHT22;68337;52.196;5.660;2023-03-14T08:18:43;6.30;99.90
75321;DHT22;68337;52.196;5.660;2023-03-14T08:21:08;6.30;99.90
75321;DHT22;68337;52.196;5.660;2023-03-14T08:23:34;6.30;99.90
75321;DHT22;68337;52.196;5.660;2023-03-14T08:26:00;6.20;99.90
75321;DHT22;68337;52.196;5.660;2023-03-14T08:28:25;6.20;99.90
75321;DHT22;68337;52.196;5.660;2023-03-14T08:30:56;6.30;99.90
75321;DHT22;68337;52.196;5.660;2023-03-14T08:33:23;6.20;99.90
75321;DHT22;68337;52.196;5.660;2023-03-14T08:35:52;6.20;99.90
75321;DHT22;68337;52.196;5.660;2023-03-14T08:38:18;6.20;99.90
75321;DHT22;68337;52.196;5.660;2023-03-14T08:40:44;6.20;99.90
75321;DHT22;68337;52.196;5.660;2023-03-14T08:43:09;6.20;99.90
75321;DHT22;68337;52.196;5.660;2023-03-14T08:45:35;6.20;99.90
75321;DHT22;68337;52.196;5.660;2023-03-14T08:48:01;6.20;99.90
75321;DHT22;68337;52.196;5.660;2023-03-14T08:50:26;6.20;99.90
75321;DHT22;68337;52.196;5.660;2023-03-14T08:52:58;6.30;99.90
75321;DHT22;68337;52.196;5.660;2023-03-14T08:55:26;6.30;99.90
75321;DHT22;68337;52.196;5.660;2023-03-14T08:57:53;6.30;99.90
75321;DHT22;68337;52.196;5.660;2023-03-14T09:00:19;6.30;99.90
75321;DHT22;68337;52.196;5.660;2023-03-14T09:02:45;6.30;99.90
75321;DHT22;68337;52.196;5.660;2023-03-14T09:05:11;6.30;99.90
75321;DHT22;68337;52.196;5.660;2023-03-14T09:07:38;6.30;99.90
75321;DHT22;68337;52.196;5.660;2023-03-14T09:10:05;6.30;99.90
75321;DHT22;68337;52.196;5.660;2023-03-14T09:12:31;6.30;99.90
75321;DHT22;68337;52.196;5.660;2023-03-14T09:14:56;6.30;99.90
75321;DHT22;68337;52.196;5.660;2023-03-14T09:17:22;6.40;99.90
75321;DHT22;68337;52.196;5.660;2023-03-14T09:19:48;6.50;99.90
75321;DHT22;68337;52.196;5.660;2023-03-14T09:22:13;6.80;99.90
75321;DHT22;68337;52.196;5.660;2023-03-14T09:24:40;6.90;99.90
75321;DHT22;68337;52.196;5.660;2023-03-14T09:27:06;6.80;99.90
75321;DHT22;68337;52.196;5.660;2023-03-14T09:29:33;6.60;99.90
75321;DHT22;68337;52.196;5.660;2023-03-14T09:31:59;6.50;99.90
75321;DHT22;68337;52.196;5.660;2023-03-14T09:34:25;6.60;99.90
75321;DHT22;68337;52.196;5.660;2023-03-14T09:36:51;6.50;99.90
75321;DHT22;68337;52.196;5.660;2023-03-14T09:39:16;6.70;99.90
75321;DHT22;68337;52.196;5.660;2023-03-14T09:41:53;6.80;99.90
75321;DHT22;68337;52.196;5.660;2023-03-14T09:46:49;7.00;99.90
75321;DHT22;68337;52.196;5.660;2023-03-14T09:49:27;7.00;99.90
75321;DHT22;68337;52.196;5.660;2023-03-14T09:51:55;7.10;99.90
75321;DHT22;68337;52.196;5.660;2023-03-14T09:54:46;7.00;99.90
75321;DHT22;68337;52.196;5.660;2023-03-14T09:57:16;6.90;99.90
75321;DHT22;68337;52.196;5.660;2023-03-14T09:59:45;6.90;99.90
75321;DHT22;68337;52.196;5.660;2023-03-14T10:04:49;6.60;99.90
75321;DHT22;68337;52.196;5.660;2023-03-14T10:07:25;6.60;99.90
75321;DHT22;68337;52.196;5.660;2023-03-14T10:09:51;6.70;99.90
75321;DHT22;68337;52.196;5.660;2023-03-14T10:12:18;6.80;99.90
75321;DHT22;68337;52.196;5.660;2023-03-14T10:14:47;6.90;99.90
75321;DHT22;68337;52.196;5.660;2023-03-14T10:17:14;7.00;99.90
75321;DHT22;68337;52.196;5.660;2023-03-14T10:22:19;7.10;99.90
75321;DHT22;68337;52.196;5.660;2023-03-14T10:24:47;7.10;99.90
75321;DHT22;68337;52.196;5.660;2023-03-14T10:27:22;6.60;99.90
75321;DHT22;68337;52.196;5.660;2023-03-14T10:29:57;6.30;99.90
75321;DHT22;68337;52.196;5.660;2023-03-14T10:32:37;6.30;99.90
75321;DHT22;68337;52.196;5.660;2023-03-14T10:38:00;6.50;99.90
75321;DHT22;68337;52.196;5.660;2023-03-14T10:40:35;6.90;99.90
75321;DHT22;68337;52.196;5.660;2023-03-14T10:43:05;6.90;99.90
75321;DHT22;68337;52.196;5.660;2023-03-14T10:45:34;7.20;99.90
75321;DHT22;68337;52.196;5.660;2023-03-14T10:48:18;7.30;99.90
75321;DHT22;68337;52.196;5.660;2023-03-14T10:51:13;7.40;99.90
75321;DHT22;68337;52.196;5.660;2023-03-14T10:53:50;7.10;99.90
75321;DHT22;68337;52.196;5.660;2023-03-14T10:56:23;7.00;99.90
75321;DHT22;68337;52.196;5.660;2023-03-14T10:58:54;7.00;99.90
75321;DHT22;68337;52.196;5.660;2023-03-14T11:07:44;6.90;99.90
75321;DHT22;68337;52.196;5.660;2023-03-14T11:15:21;6.90;99.90
75321;DHT22;68337;52.196;5.660;2023-03-14T11:20:55;6.80;99.90
75321;DHT22;68337;52.196;5.660;2023-03-14T11:27:13;7.10;99.90
75321;DHT22;68337;52.196;5.660;2023-03-14T11:29:29;7.60;99.90
75321;DHT22;68337;52.196;5.660;2023-03-14T11:32:02;8.10;99.90
75321;DHT22;68337;52.196;5.660;2023-03-14T11:34:43;8.00;99.90
75321;DHT22;68337;52.196;5.660;2023-03-14T11:39:50;8.40;99.90
75321;DHT22;68337;52.196;5.660;2023-03-14T11:42:18;8.50;99.90
75321;DHT22;68337;52.196;5.660;2023-03-14T11:44:48;8.40;99.90
75321;DHT22;68337;52.196;5.660;2023-03-14T11:52:58;8.60;99.90
75321;DHT22;68337;52.196;5.660;2023-03-14T11:55:30;8.40;99.90
75321;DHT22;68337;52.196;5.660;2023-03-14T11:58:01;8.60;99.90
75321;DHT22;68337;52.196;5.660;2023-03-14T12:00:30;8.80;99.90
75321;DHT22;68337;52.196;5.660;2023-03-14T12:03:32;8.90;99.90
75321;DHT22;68337;52.196;5.660;2023-03-14T12:06:25;8.70;99.90
75321;DHT22;68337;52.196;5.660;2023-03-14T12:09:02;9.00;99.90
75321;DHT22;68337;52.196;5.660;2023-03-14T12:14:33;9.40;99.90
75321;DHT22;68337;52.196;5.660;2023-03-14T12:17:21;9.70;99.90
75321;DHT22;68337;52.196;5.660;2023-03-14T12:19:47;10.00;99.90
75321;DHT22;68337;52.196;5.660;2023-03-14T12:22:29;9.40;99.90
75321;DHT22;68337;52.196;5.660;2023-03-14T12:25:18;9.40;99.90
75321;DHT22;68337;52.196;5.660;2023-03-14T12:35:40;9.40;99.90
75321;DHT22;68337;52.196;5.660;2023-03-14T12:38:27;9.80;99.90
75321;DHT22;68337;52.196;5.660;2023-03-14T12:43:39;10.10;99.90
75321;DHT22;68337;52.196;5.660;2023-03-14T12:48:47;9.10;99.90
75321;DHT22;68337;52.196;5.660;2023-03-14T12:51:16;9.10;99.90
75321;DHT22;68337;52.196;5.660;2023-03-14T12:56:52;8.70;99.90
75321;DHT22;68337;52.196;5.660;2023-03-14T12:59:31;9.10;99.90
75321;DHT22;68337;52.196;5.660;2023-03-14T13:05:02;9.30;96.80
75321;DHT22;68337;52.196;5.660;2023-03-14T13:07:32;9.20;99.90
75321;DHT22;68337;52.196;5.660;2023-03-14T13:12:56;8.90;97.10
75321;DHT22;68337;52.196;5.660;2023-03-14T13:15:34;9.30;99.10
75321;DHT22;68337;52.196;5.660;2023-03-14T13:20:38;9.20;94.20
75321;DHT22;68337;52.196;5.660;2023-03-14T13:23:18;9.50;95.00
75321;DHT22;68337;52.196;5.660;2023-03-14T13:25:45;9.00;94.90
75321;DHT22;68337;52.196;5.660;2023-03-14T13:28:11;9.10;94.60
75321;DHT22;68337;52.196;5.660;2023-03-14T13:30:43;9.00;96.50
75321;DHT22;68337;52.196;5.660;2023-03-14T13:33:18;9.20;96.20
75321;DHT22;68337;52.196;5.660;2023-03-14T13:35:49;9.00;97.50
75321;DHT22;68337;52.196;5.660;2023-03-14T13:38:22;8.40;98.80
75321;DHT22;68337;52.196;5.660;2023-03-14T13:40:49;8.30;98.60
75321;DHT22;68337;52.196;5.660;2023-03-14T13:43:16;8.50;97.80
75321;DHT22;68337;52.196;5.660;2023-03-14T13:48:17;8.60;98.80
75321;DHT22;68337;52.196;5.660;2023-03-14T13:50:55;8.70;99.70
75321;DHT22;68337;52.196;5.660;2023-03-14T13:53:22;9.10;96.90
75321;DHT22;68337;52.196;5.660;2023-03-14T13:55:49;8.80;91.20
75321;DHT22;68337;52.196;5.660;2023-03-14T13:58:29;8.60;95.40
75321;DHT22;68337;52.196;5.660;2023-03-14T14:01:37;8.30;90.60
75321;DHT22;68337;52.196;5.660;2023-03-14T14:04:09;8.50;97.40
75321;DHT22;68337;52.196;5.660;2023-03-14T14:06:45;9.10;94.00
75321;DHT22;68337;52.196;5.660;2023-03-14T14:09:17;9.20;90.10
75321;DHT22;68337;52.196;5.660;2023-03-14T14:11:49;9.00;80.90
75321;DHT22;68337;52.196;5.660;2023-03-14T14:14:22;9.00;80.80
75321;DHT22;68337;52.196;5.660;2023-03-14T14:16:51;9.00;92.90
75321;DHT22;68337;52.196;5.660;2023-03-14T14:19:19;9.30;91.60
75321;DHT22;68337;52.196;5.660;2023-03-14T14:21:45;9.30;86.80
75321;DHT22;68337;52.196;5.660;2023-03-14T14:24:15;9.20;85.50
75321;DHT22;68337;52.196;5.660;2023-03-14T14:26:47;9.20;90.70
75321;DHT22;68337;52.196;5.660;2023-03-14T14:29:28;9.50;82.80
75321;DHT22;68337;52.196;5.660;2023-03-14T14:32:12;9.10;71.50
75321;DHT22;68337;52.196;5.660;2023-03-14T14:37:34;8.70;85.30
75321;DHT22;68337;52.196;5.660;2023-03-14T14:40:20;8.60;79.90
75321;DHT22;68337;52.196;5.660;2023-03-14T14:42:47;8.30;83.80
75321;DHT22;68337;52.196;5.660;2023-03-14T14:45:18;7.90;91.60
75321;DHT22;68337;52.196;5.660;2023-03-14T14:47:53;7.90;97.70
75321;DHT22;68337;52.196;5.660;2023-03-14T14:50:49;7.90;91.40
75321;DHT22;68337;52.196;5.660;2023-03-14T14:56:02;7.50;94.70
75321;DHT22;68337;52.196;5.660;2023-03-14T14:58:34;7.50;97.40
75321;DHT22;68337;52.196;5.660;2023-03-14T15:01:36;7.50;97.90
75321;DHT22;68337;52.196;5.660;2023-03-14T15:04:08;7.70;99.50
75321;DHT22;68337;52.196;5.660;2023-03-14T15:06:35;7.60;98.20
75321;DHT22;68337;52.196;5.660;2023-03-14T15:09:01;7.50;99.90
75321;DHT22;68337;52.196;5.660;2023-03-14T15:11:27;7.40;99.90
75321;DHT22;68337;52.196;5.660;2023-03-14T15:13:53;7.30;99.90
75321;DHT22;68337;52.196;5.660;2023-03-14T15:16:22;7.40;99.90
75321;DHT22;68337;52.196;5.660;2023-03-14T15:18:53;7.40;99.90
75321;DHT22;68337;52.196;5.660;2023-03-14T15:21:19;7.50;99.90
75321;DHT22;68337;52.196;5.660;2023-03-14T15:23:45;7.30;97.50
75321;DHT22;68337;52.196;5.660;2023-03-14T15:26:21;7.10;99.90
75321;DHT22;68337;52.196;5.660;2023-03-14T15:28:48;7.20;99.20
75321;DHT22;68337;52.196;5.660;2023-03-14T15:31:14;7.30;99.90
75321;DHT22;68337;52.196;5.660;2023-03-14T15:33:40;7.40;99.90
75321;DHT22;68337;52.196;5.660;2023-03-14T15:36:21;7.50;99.90
75321;DHT22;68337;52.196;5.660;2023-03-14T15:38:48;7.40;99.90
75321;DHT22;68337;52.196;5.660;2023-03-14T15:41:14;7.30;99.90
75321;DHT22;68337;52.196;5.660;2023-03-14T15:43:41;7.30;99.90
75321;DHT22;68337;52.196;5.660;2023-03-14T15:46:11;7.30;99.90
75321;DHT22;68337;52.196;5.660;2023-03-14T15:48:37;7.20;99.90
75321;DHT22;68337;52.196;5.660;2023-03-14T15:51:03;7.20;99.90
75321;DHT22;68337;52.196;5.660;2023-03-14T15:53:28;7.10;99.90
75321;DHT22;68337;52.196;5.660;2023-03-14T15:55:54;7.00;99.90
75321;DHT22;68337;52.196;5.660;2023-03-14T15:58:20;7.00;99.90
75321;DHT22;68337;52.196;5.660;2023-03-14T16:00:46;7.00;99.90
75321;DHT22;68337;52.196;5.660;2023-03-14T16:03:12;7.00;99.90
75321;DHT22;68337;52.196;5.660;2023-03-14T16:05:39;7.10;99.90
75321;DHT22;68337;52.196;5.660;2023-03-14T16:08:05;7.20;99.90
75321;DHT22;68337;52.196;5.660;2023-03-14T16:10:32;7.10;99.90
75321;DHT22;68337;52.196;5.660;2023-03-14T16:12:57;6.90;99.90
75321;DHT22;68337;52.196;5.660;2023-03-14T16:15:23;6.80;99.90
75321;DHT22;68337;52.196;5.660;2023-03-14T16:17:54;6.70;99.90
75321;DHT22;68337;52.196;5.660;2023-03-14T16:20:21;6.80;99.90
75321;DHT22;68337;52.196;5.660;2023-03-14T16:22:47;6.80;99.90
75321;DHT22;68337;52.196;5.660;2023-03-14T16:25:13;6.80;99.90
75321;DHT22;68337;52.196;5.660;2023-03-14T16:27:39;6.90;99.90
75321;DHT22;68337;52.196;5.660;2023-03-14T16:30:06;6.90;99.90
75321;DHT22;68337;52.196;5.660;2023-03-14T16:32:33;6.90;99.90
75321;DHT22;68337;52.196;5.660;2023-03-14T16:34:59;6.90;99.90
75321;DHT22;68337;52.196;5.660;2023-03-14T16:37:24;6.90;99.90
75321;DHT22;68337;52.196;5.660;2023-03-14T16:39:52;6.80;99.90
75321;DHT22;68337;52.196;5.660;2023-03-14T16:42:19;6.80;99.90
75321;DHT22;68337;52.196;5.660;2023-03-14T16:44:45;6.70;99.90
75321;DHT22;68337;52.196;5.660;2023-03-14T16:47:11;6.70;99.90
75321;DHT22;68337;52.196;5.660;2023-03-14T16:49:37;6.60;99.90
75321;DHT22;68337;52.196;5.660;2023-03-14T16:52:03;6.60;99.90
75321;DHT22;68337;52.196;5.660;2023-03-14T16:54:29;6.60;99.90
75321;DHT22;68337;52.196;5.660;2023-03-14T16:56:55;6.50;99.90
75321;DHT22;68337;52.196;5.660;2023-03-14T16:59:20;6.50;99.90
75321;DHT22;68337;52.196;5.660;2023-03-14T17:01:46;6.40;99.90
75321;DHT22;68337;52.196;5.660;2023-03-14T17:04:12;6.50;99.90
75321;DHT22;68337;52.196;5.660;2023-03-14T17:06:38;6.40;99.90
75321;DHT22;68337;52.196;5.660;2023-03-14T17:09:04;6.40;99.90
75321;DHT22;68337;52.196;5.660;2023-03-14T17:11:31;6.40;99.90
75321;DHT22;68337;52.196;5.660;2023-03-14T17:13:58;6.30;99.90
75321;DHT22;68337;52.196;5.660;2023-03-14T17:16:24;6.40;99.90